Главная страница
METAR-TAF:

METAR-TAF

Аэропорты :

Николаев, Украина

широта: 47-03-29N, долгота: 031-55-15E, высота над уровнем моря: 56 м

Текущие метеонаблюдения

Эта сводка был подготовлена 37 минут назад, в 06:00 UTC
Ветер 8 Узел от северо-восточный
Температура 25°C
Влажность 61%
Давление 1014 hPa
Видимость 10 км и более
Нет облачности ниже 1500 м, и нет кучево-дождевой облачности

METAR: UKON 170600Z 05004MPS CAVOK 25/17 Q1014 NOSIG

Время: 09:37 (06:37 UTC)

Прогноз

Эта сводка был подготовлена 1 час и 34 минут назад, в 05:03 UTC
Прогноз действительный с 17-го 06 UTC до 17-го 15 UTC
Ветер 10 Узел от восточно-северо-восточный
Видимость 10 км и более
Отдельные облака на высоте 3000 фута

TAF: UKON 170503Z 1706/1715 06005MPS 9999 SCT030 TX31/1713Z TN24/1706Z

Метеонаблюдения и прогнозы для более 4000 аэропортов (сводки METAR и TAF).

Имеющиеся станции представлены на карте желтыми и красными точками.

Чтобы увидеть название станции, наведите на нее мышь.

Затем щелкните, чтобы увидеть метеонаблюдения и метеопрогнозы.

Управление картой: чтобы увеличить масштаб, щелкните зеленые кнопки с черным крестиком; чтобы уменьшить масштаб, щелкните зеленую кнопку с тире; для просмотра соседних карт щелкайте зеленые стрелки.


METAR-TAF: